Time;durP1;ratioP1;P1;durP2;ratioP2;P2;SDS_P1;SDS_P2;PMS_P1;PMS_P2;Temp;Humidity;BMP_temperature;BMP_pressure;BME280_temperature;BME280_humidity;BME280_pressure;Samples;Min_cycle;Max_cycle;Signal;HPM_P1;HPM_P2
2022/08/09 00:01:40;;;;;;;7.47;5.38;;;;;;;-146.58;100.00;69501.63;5020245;28;20422;-61
2022/08/09 00:04:05;;;;;;;10.75;4.60;;;;;;;-146.58;100.00;69501.63;5020576;28;20469;-61
2022/08/09 00:06:31;;;;;;;5.03;4.18;;;;;;;-146.58;100.00;69501.63;5019741;28;20041;-61
2022/08/09 00:08:56;;;;;;;5.65;4.63;;;;;;;-146.58;100.00;69501.63;5022327;28;20017;-61
2022/08/09 00:11:22;;;;;;;6.38;4.95;;;;;;;-146.58;100.00;69501.63;5026969;28;20390;-60
2022/08/09 00:13:49;;;;;;;8.23;4.50;;;;;;;-146.58;100.00;69501.63;5019913;28;20036;-60
2022/08/09 00:16:15;;;;;;;6.13;4.53;;;;;;;-146.58;100.00;69501.63;5018243;28;20057;-60
2022/08/09 00:18:40;;;;;;;4.18;3.50;;;;;;;-146.58;100.00;69501.63;5020892;28;20030;-60
2022/08/09 00:21:07;;;;;;;8.20;4.63;;;;;;;-146.58;100.00;69501.63;5018881;28;20034;-60
2022/08/09 00:23:33;;;;;;;6.88;5.50;;;;;;;-146.58;100.00;69501.63;5021969;28;20025;-60
2022/08/09 00:25:58;;;;;;;7.72;4.88;;;;;;;-146.58;100.00;69501.63;5018187;28;20132;-60
2022/08/09 00:28:24;;;;;;;11.25;5.68;;;;;;;-146.58;100.00;69501.63;5020597;28;20049;-61
2022/08/09 00:30:50;;;;;;;6.68;4.38;;;;;;;-146.58;100.00;69501.63;5018451;28;20053;-60
2022/08/09 00:33:15;;;;;;;6.22;5.28;;;;;;;-146.58;100.00;69501.63;5020816;28;20033;-60
2022/08/09 00:35:41;;;;;;;5.55;4.95;;;;;;;-146.58;100.00;69501.63;5018916;28;20046;-60
2022/08/09 00:38:08;;;;;;;7.72;4.65;;;;;;;-146.58;100.00;69501.63;5017402;28;20033;-60
2022/08/09 00:40:34;;;;;;;5.28;4.80;;;;;;;-146.58;100.00;69501.63;5016301;28;20036;-60
2022/08/09 00:42:59;;;;;;;6.20;4.55;;;;;;;-146.58;100.00;69501.63;5021338;28;20032;-60
2022/08/09 00:45:24;;;;;;;18.42;6.50;;;;;;;-146.58;100.00;69501.63;5018749;28;20064;-59
2022/08/09 00:47:50;;;;;;;6.60;5.25;;;;;;;-146.58;100.00;69501.63;5021656;28;20021;-59
2022/08/09 00:50:15;;;;;;;7.38;5.20;;;;;;;-146.58;100.00;69501.63;5018227;28;20506;-58
2022/08/09 00:52:41;;;;;;;16.42;6.50;;;;;;;-146.58;100.00;69501.63;5019453;28;20409;-58
2022/08/09 00:55:08;;;;;;;7.90;6.40;;;;;;;-146.58;100.00;69501.63;5013111;28;20129;-59
2022/08/09 00:57:33;;;;;;;6.18;5.05;;;;;;;-146.58;100.00;69501.63;5020803;28;20027;-58
2022/08/09 00:59:58;;;;;;;23.17;7.65;;;;;;;-146.58;100.00;69501.63;5017423;28;20042;-58
2022/08/09 01:02:28;;;;;;;11.65;5.32;;;;;;;-146.58;100.00;69501.63;5018427;28;20029;-58
2022/08/09 01:05:07;;;;;;;7.78;5.65;;;;;;;-146.58;100.00;69501.63;5019638;28;20421;-58
2022/08/09 01:07:45;;;;;;;8.05;5.65;;;;;;;-146.58;100.00;69501.63;5020602;28;20579;-59
2022/08/09 01:10:22;;;;;;;9.75;6.30;;;;;;;-146.58;100.00;69501.63;5015807;28;20592;-58
2022/08/09 01:13:01;;;;;;;7.82;4.72;;;;;;;-146.58;100.00;69501.63;5019270;28;20524;-58
2022/08/09 01:15:32;;;;;;;13.02;5.55;;;;;;;-146.58;100.00;69501.63;5019265;28;20045;-58
2022/08/09 01:18:02;;;;;;;8.18;6.00;;;;;;;-146.58;100.00;69501.63;5019672;28;20417;-58
2022/08/09 01:20:47;;;;;;;11.70;6.50;;;;;;;-146.58;100.00;69501.63;5018357;28;20493;-58
2022/08/09 01:23:42;;;;;;;8.23;5.60;;;;;;;-146.58;100.00;69501.63;5021364;28;20029;-58
2022/08/09 01:26:24;;;;;;;8.38;5.93;;;;;;;-146.58;100.00;69501.63;5019246;28;20030;-59
2022/08/09 01:28:54;;;;;;;7.57;5.82;;;;;;;-146.58;100.00;69501.63;5021089;28;20064;-59
2022/08/09 01:31:24;;;;;;;9.45;6.55;;;;;;;-146.58;100.00;69501.63;5018229;28;20048;-58
2022/08/09 01:33:51;;;;;;;6.38;5.75;;;;;;;-146.58;100.00;69501.63;5018876;28;20030;-58
2022/08/09 01:36:21;;;;;;;8.23;7.03;;;;;;;-146.58;100.00;69501.63;5015937;28;20046;-58
2022/08/09 01:38:49;;;;;;;15.55;8.52;;;;;;;-146.58;100.00;69501.63;5020894;28;20028;-58
2022/08/09 01:41:17;;;;;;;7.33;5.60;;;;;;;-146.58;100.00;69501.63;5017524;28;20523;-61
2022/08/09 01:43:46;;;;;;;10.98;6.13;;;;;;;-146.58;100.00;69501.63;5020181;28;20036;-61
2022/08/09 01:46:14;;;;;;;8.25;6.20;;;;;;;-146.58;100.00;69501.63;5015708;28;20401;-61
2022/08/09 01:48:41;;;;;;;15.50;7.87;;;;;;;-146.58;100.00;69501.63;5019844;28;20032;-59
2022/08/09 01:51:08;;;;;;;14.02;7.55;;;;;;;-146.58;100.00;69501.63;5019119;28;20500;-59
2022/08/09 01:53:35;;;;;;;16.48;7.75;;;;;;;-146.58;100.00;69501.63;5018502;28;20018;-58
2022/08/09 01:56:02;;;;;;;14.02;8.13;;;;;;;-146.58;100.00;69501.63;5017951;28;20069;-58
2022/08/09 01:58:28;;;;;;;9.52;6.80;;;;;;;-146.58;100.00;69501.63;5020401;28;20026;-58
2022/08/09 02:00:55;;;;;;;6.25;5.65;;;;;;;-146.58;100.00;69501.63;5016999;28;20130;-60
2022/08/09 02:03:22;;;;;;;11.15;7.85;;;;;;;-146.58;100.00;69501.63;5019392;28;20164;-60
2022/08/09 02:05:50;;;;;;;7.60;6.80;;;;;;;-146.58;100.00;69501.63;5015633;28;20034;-59
2022/08/09 02:08:18;;;;;;;8.05;7.20;;;;;;;-146.58;100.00;69501.63;5019769;28;20033;-59
2022/08/09 02:10:47;;;;;;;7.85;5.68;;;;;;;-146.58;100.00;69501.63;5018012;28;20420;-59
2022/08/09 02:13:15;;;;;;;10.77;7.85;;;;;;;13.86;100.00;164189.44;5018700;28;20021;-59
2022/08/09 02:15:45;;;;;;;11.70;7.80;;;;;;;13.86;100.00;164189.44;5018194;28;20456;-60
2022/08/09 02:18:14;;;;;;;10.75;7.32;;;;;;;13.84;100.00;164184.00;5020563;28;20044;-61
2022/08/09 02:20:45;;;;;;;9.75;8.75;;;;;;;13.82;100.00;164178.59;5016191;28;20755;-60
2022/08/09 02:23:24;;;;;;;11.50;7.78;;;;;;;13.84;100.00;164184.00;5018642;28;20161;-60
2022/08/09 02:25:52;;;;;;;15.55;9.15;;;;;;;13.76;100.00;164163.75;5016857;28;20038;-59
2022/08/09 02:28:27;;;;;;;9.32;8.13;;;;;;;13.80;100.00;164173.22;5018331;28;20130;-60
2022/08/09 02:31:09;;;;;;;17.00;9.65;;;;;;;13.77;100.00;164165.06;5027955;28;20045;-60
2022/08/09 02:33:38;;;;;;;23.27;9.57;;;;;;;13.77;100.00;163768.06;5021162;28;20029;-59
2022/08/09 02:36:10;;;;;;;12.65;9.07;;;;;;;13.75;100.00;162807.75;5021954;28;20501;-62
2022/08/09 02:38:43;;;;;;;11.95;10.27;;;;;;;13.71;100.00;162233.69;5023470;28;20029;-62
2022/08/09 02:41:12;;;;;;;11.45;9.93;;;;;;;13.63;100.00;160822.31;5021493;28;20400;-62
2022/08/09 02:43:41;;;;;;;13.70;9.88;;;;;;;13.69;100.00;158503.28;5023177;28;20071;-62
2022/08/09 02:46:09;;;;;;;13.85;9.38;;;;;;;13.63;100.00;157741.84;5023397;28;20084;-62
2022/08/09 02:48:36;;;;;;;14.90;10.57;;;;;;;13.64;100.00;157034.94;5023399;28;20030;-62
2022/08/09 02:51:04;;;;;;;15.25;10.95;;;;;;;13.63;100.00;157032.34;5024003;28;20132;-62
2022/08/09 02:53:37;;;;;;;12.13;9.88;;;;;;;13.62;100.00;157739.25;5033742;28;20029;-62
2022/08/09 02:56:05;;;;;;;15.63;10.25;;;;;;;13.61;100.00;158817.69;5031916;28;20048;-62
2022/08/09 02:58:32;;;;;;;11.32;9.43;;;;;;;13.59;100.00;160398.47;5033765;28;20388;-61
2022/08/09 03:00:59;;;;;;;14.50;10.63;;;;;;;13.56;100.00;162215.69;5029580;28;20052;-62
2022/08/09 03:03:27;;;;;;;16.10;11.98;;;;;;;13.54;100.00;163427.09;5033368;28;20048;-61
2022/08/09 03:05:55;;;;;;;19.48;13.75;;;;;;;13.49;100.00;163895.03;5032227;28;20037;-62
2022/08/09 03:08:23;;;;;;;11.75;10.02;;;;;;;13.47;100.00;163745.31;5033531;28;20021;-61
2022/08/09 03:10:48;;;;;;;16.85;11.57;;;;;;;13.44;100.00;161325.16;5031898;28;20120;-62
2022/08/09 03:13:15;;;;;;;18.27;11.90;;;;;;;13.41;100.00;159235.09;5033623;28;20113;-62
2022/08/09 03:15:42;;;;;;;17.02;11.85;;;;;;;13.41;100.00;156976.78;5023779;28;20132;-61
2022/08/09 03:18:09;;;;;;;11.48;10.25;;;;;;;13.39;100.00;155908.06;5033458;28;20621;-62
2022/08/09 03:20:37;;;;;;;13.25;11.90;;;;;;;13.35;100.00;154833.22;5017785;28;20052;-61
2022/08/09 03:23:03;;;;;;;13.97;11.50;;;;;;;13.31;100.00;154116.94;5013666;28;20485;-61
2022/08/09 03:25:29;;;;;;;15.43;10.63;;;;;;;13.31;100.00;152345.88;5011883;28;20471;-61
2022/08/09 03:27:55;;;;;;;15.13;13.55;;;;;;;13.30;100.00;150927.09;5015220;28;20057;-61
2022/08/09 03:30:21;;;;;;;14.68;12.95;;;;;;;13.28;100.00;149859.03;5025619;28;20041;-61
2022/08/09 03:32:48;;;;;;;14.82;11.98;;;;;;;13.25;100.00;148791.34;5013229;28;20018;-61
2022/08/09 03:35:14;;;;;;;14.13;12.77;;;;;;;13.24;100.00;147373.97;5012003;28;20073;-60
2022/08/09 03:37:40;;;;;;;14.00;12.35;;;;;;;13.19;100.00;147008.25;5013408;28;20025;-61
2022/08/09 03:40:07;;;;;;;24.77;14.18;;;;;;;13.17;100.00;145235.78;5011546;28;20095;-61
2022/08/09 03:42:32;;;;;;;20.38;12.07;;;;;;;13.15;100.00;144172.03;5013910;28;20064;-61
2022/08/09 03:44:58;;;;;;;14.10;12.57;;;;;;;13.09;100.00;143803.34;5011523;28;20485;-60
2022/08/09 03:47:23;;;;;;;15.13;12.20;;;;;;;13.11;100.00;144161.38;5012575;28;20474;-61
2022/08/09 03:49:50;;;;;;;19.80;13.15;;;;;;;13.10;100.00;144512.34;5029755;28;20041;-61
2022/08/09 03:52:17;;;;;;;19.25;13.10;;;;;;;13.09;100.00;144509.97;5033014;28;20453;-61
2022/08/09 03:54:45;;;;;;;18.10;13.65;;;;;;;13.08;100.00;144507.59;5031122;28;20044;-61
2022/08/09 03:57:13;;;;;;;17.60;15.23;;;;;;;13.06;100.00;144149.56;5031833;28;20435;-61
2022/08/09 03:59:38;;;;;;;17.55;12.43;;;;;;;13.01;100.00;144492.19;5031045;28;20460;-61
2022/08/09 04:02:04;;;;;;;20.65;13.73;;;;;;;13.02;100.00;144849.06;5032364;28;20469;-58
2022/08/09 04:04:31;;;;;;;15.20;13.68;;;;;;;12.98;100.00;145899.63;5030610;28;20045;-58
2022/08/09 04:06:57;;;;;;;15.82;14.18;;;;;;;12.92;100.00;146945.44;5032719;28;20152;-58
2022/08/09 04:09:24;;;;;;;17.83;13.25;;;;;;;12.95;100.00;147658.53;5030706;28;20128;-59
2022/08/09 04:11:49;;;;;;;24.55;15.15;;;;;;;12.95;100.00;147659.72;5018541;28;20109;-59
2022/08/09 04:14:20;;;;;;;18.08;13.50;;;;;;;12.95;100.00;144831.25;5011374;28;20110;-58
2022/08/09 04:16:45;;;;;;;20.98;14.32;;;;;;;12.94;100.00;142003.53;5012567;28;20030;-59
2022/08/09 04:19:12;;;;;;;16.75;14.93;;;;;;;12.94;100.00;139180.16;5011426;28;20026;-58
2022/08/09 04:21:38;;;;;;;15.45;13.05;;;;;;;12.95;100.00;137419.91;5012550;28;20500;-59
2022/08/09 04:24:04;;;;;;;17.38;14.43;;;;;;;12.92;100.00;134945.34;5011655;28;20112;-59
2022/08/09 04:26:29;;;;;;;20.05;14.82;;;;;;;12.95;100.00;133894.78;5012255;28;20386;-59
2022/08/09 04:28:55;;;;;;;22.45;14.13;;;;;;;12.96;100.00;132487.78;5012238;28;20049;-59
2022/08/09 04:31:20;;;;;;;21.45;13.80;;;;;;;12.92;100.00;131070.44;5026041;28;20052;-59
2022/08/09 04:33:45;;;;;;;18.08;14.63;;;;;;;12.97;100.00;130377.00;5032155;28;20036;-58
2022/08/09 04:36:11;;;;;;;29.08;15.43;;;;;;;12.99;100.00;129676.06;5030434;28;20532;-59
2022/08/09 04:38:36;;;;;;;22.63;13.80;;;;;;;13.00;100.00;128623.31;5028885;28;20033;-59
2022/08/09 04:41:01;;;;;;;23.67;13.25;;;;;;;13.02;100.00;127219.97;5010713;28;20046;-59
2022/08/09 04:43:27;;;;;;;28.15;15.30;;;;;;;13.07;100.00;125117.75;5012111;28;20025;-59
2022/08/09 04:45:52;;;;;;;21.20;15.80;;;;;;;13.10;100.00;123717.34;5015784;28;20052;-59
2022/08/09 04:48:18;;;;;;;20.60;14.98;;;;;;;13.13;100.00;123021.28;5021462;28;20026;-58
2022/08/09 04:50:43;;;;;;;19.60;13.98;;;;;;;13.15;100.00;122672.78;5010811;28;20099;-58
2022/08/09 04:53:09;;;;;;;16.85;14.18;;;;;;;13.17;100.00;122676.78;5012807;28;20365;-58
2022/08/09 04:55:36;;;;;;;21.30;14.73;;;;;;;13.20;100.00;123034.38;5009577;28;20497;-58
2022/08/09 04:58:02;;;;;;;21.25;14.43;;;;;;;13.22;100.00;123389.94;5019117;28;20380;-58
2022/08/09 05:00:27;;;;;;;23.08;17.33;;;;;;;13.25;100.00;124099.31;5029528;28;20068;-58
2022/08/09 05:02:52;;;;;;;15.20;13.60;;;;;;;13.26;100.00;125156.56;5031595;28;20021;-61
2022/08/09 05:05:18;;;;;;;19.40;15.63;;;;;;;13.30;100.00;125868.41;5029893;28;20041;-59
2022/08/09 05:07:43;;;;;;;19.27;13.45;;;;;;;-146.58;100.00;69501.63;5025977;28;20032;-59
2022/08/09 05:10:09;;;;;;;15.82;13.43;;;;;;;-146.58;100.00;69501.63;5019711;28;20049;-59
2022/08/09 05:12:35;;;;;;;17.23;14.98;;;;;;;-146.58;100.00;69501.63;5018024;28;20083;-61
2022/08/09 05:15:00;;;;;;;17.45;12.65;;;;;;;-146.58;100.00;69501.63;5015122;28;20049;-60
2022/08/09 05:17:25;;;;;;;15.43;13.82;;;;;;;-146.58;100.00;69501.63;5011107;28;20034;-60
2022/08/09 05:19:52;;;;;;;14.38;12.90;;;;;;;-146.58;100.00;69501.63;5011002;28;20052;-61
2022/08/09 05:22:17;;;;;;;20.92;15.15;;;;;;;-146.58;100.00;69501.63;5011600;28;20484;-60
2022/08/09 05:24:44;;;;;;;15.35;13.13;;;;;;;-146.58;100.00;69501.63;5009767;28;20049;-60
2022/08/09 05:27:09;;;;;;;15.90;12.60;;;;;;;-146.58;100.00;69501.63;5011237;28;20498;-59
2022/08/09 05:29:34;;;;;;;23.77;14.52;;;;;;;-146.58;100.00;69501.63;5010728;28;20060;-60
2022/08/09 05:32:00;;;;;;;18.95;13.55;;;;;;;-146.58;100.00;69501.63;5011518;28;20469;-60
2022/08/09 05:34:30;;;;;;;18.15;14.10;;;;;;;-146.58;100.00;69501.63;5029433;28;20047;-60
2022/08/09 05:36:56;;;;;;;14.43;12.88;;;;;;;-146.58;100.00;69501.63;5030284;28;20021;-60
2022/08/09 05:39:24;;;;;;;15.45;12.18;;;;;;;-146.58;100.00;69501.63;5029181;28;20044;-60
2022/08/09 05:41:50;;;;;;;16.08;13.25;;;;;;;-146.58;100.00;69501.63;5020592;28;20029;-60
2022/08/09 05:44:16;;;;;;;13.93;12.23;;;;;;;-146.58;100.00;69501.63;5017860;28;20643;-61
2022/08/09 05:46:41;;;;;;;14.88;13.30;;;;;;;-146.58;100.00;69501.63;5018703;28;20029;-61
2022/08/09 05:49:06;;;;;;;12.80;11.15;;;;;;;-146.58;100.00;69501.63;5019379;28;20022;-61
2022/08/09 05:51:32;;;;;;;14.13;12.60;;;;;;;-146.58;100.00;69501.63;5016910;28;20026;-61
2022/08/09 05:53:57;;;;;;;18.67;11.82;;;;;;;-146.58;100.00;69501.63;5019061;28;20359;-61
2022/08/09 05:56:22;;;;;;;13.27;8.85;;;;;;;-146.58;100.00;69501.63;5019204;28;20111;-61
2022/08/09 05:58:49;;;;;;;11.25;9.88;;;;;;;-146.58;100.00;69501.63;5019488;28;20026;-61
2022/08/09 06:01:14;;;;;;;11.05;8.73;;;;;;;-146.58;100.00;69501.63;5019719;28;20033;-61
2022/08/09 06:03:40;;;;;;;13.75;8.40;;;;;;;-146.58;100.00;69501.63;5019473;28;20417;-61
2022/08/09 06:06:05;;;;;;;10.85;8.45;;;;;;;-146.58;100.00;69501.63;5018634;28;20052;-61
2022/08/09 06:08:31;;;;;;;16.40;9.40;;;;;;;-146.58;100.00;69501.63;5019426;28;20083;-61
2022/08/09 06:10:56;;;;;;;8.55;7.43;;;;;;;-146.58;100.00;69501.63;5022684;28;20042;-60
2022/08/09 06:13:22;;;;;;;13.00;7.88;;;;;;;-146.58;100.00;69501.63;5023444;28;20029;-61
2022/08/09 06:15:48;;;;;;;8.75;7.50;;;;;;;-146.58;100.00;69501.63;5020860;28;20045;-61
2022/08/09 06:18:14;;;;;;;16.60;8.57;;;;;;;-146.58;100.00;69501.63;5022488;28;20533;-61
2022/08/09 06:20:40;;;;;;;9.63;7.35;;;;;;;-146.58;100.00;69501.63;5022073;28;20156;-60
2022/08/09 06:23:06;;;;;;;9.88;6.47;;;;;;;-146.58;100.00;69501.63;5020941;28;20033;-61
2022/08/09 06:25:31;;;;;;;10.43;6.05;;;;;;;-146.58;100.00;69501.63;5017802;28;20053;-61
2022/08/09 06:27:56;;;;;;;9.63;5.80;;;;;;;-146.58;100.00;69501.63;5023602;28;20033;-57
2022/08/09 06:30:22;;;;;;;6.75;5.10;;;;;;;-146.58;100.00;69501.63;5024239;28;20038;-60
2022/08/09 06:32:48;;;;;;;5.75;4.57;;;;;;;-146.58;100.00;69501.63;5023669;28;20101;-60
2022/08/09 06:35:14;;;;;;;7.13;4.75;;;;;;;-146.58;100.00;69501.63;5022693;28;20080;-60
2022/08/09 06:37:39;;;;;;;5.88;4.80;;;;;;;-146.58;100.00;69501.63;5021849;28;20404;-60
2022/08/09 06:40:05;;;;;;;6.07;5.07;;;;;;;-146.58;100.00;69501.63;5022456;28;20033;-60
2022/08/09 06:42:30;;;;;;;5.32;4.82;;;;;;;-146.58;100.00;69501.63;5022820;28;20029;-60
2022/08/09 06:44:57;;;;;;;6.90;5.00;;;;;;;-146.58;100.00;69501.63;5013898;28;20034;-60
2022/08/09 06:47:22;;;;;;;13.10;4.70;;;;;;;-146.58;100.00;69501.63;5013944;28;20092;-60
2022/08/09 06:49:48;;;;;;;8.80;5.28;;;;;;;-146.58;100.00;69501.63;5012908;28;20432;-60
2022/08/09 06:52:13;;;;;;;7.10;5.43;;;;;;;-146.58;100.00;69501.63;5026425;28;20029;-60
2022/08/09 06:54:38;;;;;;;4.22;3.60;;;;;;;-146.58;100.00;69501.63;5023228;28;20045;-60
2022/08/09 06:57:04;;;;;;;9.02;3.95;;;;;;;-146.58;100.00;69501.63;5032765;28;20075;-60
2022/08/09 06:59:29;;;;;;;7.63;3.92;;;;;;;-146.58;100.00;69501.63;5031922;28;20045;-60
2022/08/09 07:01:55;;;;;;;5.35;3.78;;;;;;;-146.58;100.00;69501.63;5033892;28;20021;-60
2022/08/09 07:04:20;;;;;;;4.00;3.60;;;;;;;-146.58;100.00;69501.63;5032276;28;20052;-61
2022/08/09 07:06:45;;;;;;;4.38;3.40;;;;;;;-146.58;100.00;69501.63;5020561;28;20037;-60
2022/08/09 07:09:11;;;;;;;2.92;2.65;;;;;;;-146.58;100.00;69501.63;5017419;28;20389;-59
2022/08/09 07:11:37;;;;;;;4.82;2.75;;;;;;;-146.58;100.00;69501.63;5013794;28;20034;-60
2022/08/09 07:14:02;;;;;;;6.03;3.00;;;;;;;-146.58;100.00;69501.63;5012344;28;20407;-59
2022/08/09 07:16:27;;;;;;;2.78;2.58;;;;;;;-146.58;100.00;69501.63;5013439;28;20030;-60
2022/08/09 07:18:53;;;;;;;10.20;2.80;;;;;;;-146.58;100.00;69501.63;5012939;28;20421;-60
2022/08/09 07:21:18;;;;;;;9.55;3.90;;;;;;;-146.58;100.00;69501.63;5011316;28;20103;-60
2022/08/09 07:23:43;;;;;;;6.75;2.20;;;;;;;-146.58;100.00;69501.63;5012438;28;20029;-59
2022/08/09 07:26:09;;;;;;;8.02;3.40;;;;;;;-146.58;100.00;69501.63;5023156;28;20041;-59
2022/08/09 07:28:34;;;;;;;4.47;3.63;;;;;;;-146.58;100.00;69501.63;5012761;28;20075;-59
2022/08/09 07:31:00;;;;;;;4.75;2.55;;;;;;;-146.58;100.00;69501.63;5015119;28;20061;-59
2022/08/09 07:33:25;;;;;;;3.72;2.10;;;;;;;-146.58;100.00;69501.63;5024747;28;20477;-59
2022/08/09 07:35:51;;;;;;;6.22;3.28;;;;;;;-146.58;100.00;69501.63;5031038;28;20045;-59
2022/08/09 07:38:17;;;;;;;2.90;2.50;;;;;;;-146.58;100.00;69501.63;5014651;28;20025;-59
2022/08/09 07:40:42;;;;;;;3.13;2.80;;;;;;;-146.58;100.00;69501.63;5011908;28;20038;-60
2022/08/09 07:43:08;;;;;;;5.78;3.00;;;;;;;-146.58;100.00;69501.63;5012891;28;20080;-60
2022/08/09 07:45:33;;;;;;;5.65;2.95;;;;;;;-146.58;100.00;69501.63;5019063;28;20421;-59
2022/08/09 07:47:58;;;;;;;6.32;2.00;;;;;;;-146.58;100.00;69501.63;5029513;28;20481;-59
2022/08/09 07:50:26;;;;;;;10.35;3.63;;;;;;;-146.58;100.00;69501.63;5031061;28;20420;-60
2022/08/09 07:52:51;;;;;;;4.13;2.97;;;;;;;-146.58;100.00;69501.63;5031565;28;20032;-60
2022/08/09 07:55:17;;;;;;;3.60;2.40;;;;;;;-146.58;100.00;69501.63;5018788;28;20042;-60
2022/08/09 07:57:46;;;;;;;4.15;2.03;;;;;;;-146.58;100.00;69501.63;5012799;28;20030;-59
2022/08/09 08:00:11;;;;;;;5.03;2.20;;;;;;;-146.58;100.00;69501.63;5011347;28;20500;-60
2022/08/09 08:02:36;;;;;;;5.60;1.92;;;;;;;-146.58;100.00;69501.63;5013108;28;20109;-59
2022/08/09 08:05:02;;;;;;;2.88;1.95;;;;;;;-146.58;100.00;69501.63;5011532;28;20489;-60
2022/08/09 08:07:27;;;;;;;6.32;1.95;;;;;;;-146.58;100.00;69501.63;5012264;28;20033;-60
2022/08/09 08:09:53;;;;;;;5.47;2.50;;;;;;;20.41;100.00;165907.88;5011289;28;20038;-60
2022/08/09 08:12:18;;;;;;;4.40;2.55;;;;;;;-146.58;100.00;69501.63;5012444;28;20084;-60
2022/08/09 08:14:44;;;;;;;1.65;1.55;;;;;;;20.35;100.00;165891.59;5017434;28;20052;-60
2022/08/09 08:17:09;;;;;;;2.13;1.98;;;;;;;20.51;100.00;165935.06;5019826;28;20021;-59
2022/08/09 08:19:35;;;;;;;3.45;2.08;;;;;;;20.67;100.00;165975.75;5011362;28;20050;-59
2022/08/09 08:22:01;;;;;;;3.38;2.13;;;;;;;20.94;100.00;166046.44;5012305;28;20068;-60
2022/08/09 08:24:26;;;;;;;6.80;2.10;;;;;;;21.03;100.00;166070.88;5009651;28;20477;-60
2022/08/09 08:26:52;;;;;;;2.53;2.15;;;;;;;21.03;100.00;166070.88;5012552;28;20033;-60
2022/08/09 08:29:18;;;;;;;3.70;2.70;;;;;;;21.01;100.00;166066.75;5010566;28;20022;-60
2022/08/09 08:31:44;;;;;;;2.72;2.10;;;;;;;21.35;100.00;166155.03;5012727;28;20029;-59
2022/08/09 08:34:09;;;;;;;2.40;1.50;;;;;;;21.59;100.00;166217.56;5009947;28;20029;-59
2022/08/09 08:36:35;;;;;;;4.28;1.52;;;;;;;21.86;100.00;166290.91;5017857;28;20108;-60
2022/08/09 08:39:01;;;;;;;6.38;1.40;;;;;;;21.64;100.00;166231.13;5030232;28;20030;-59
2022/08/09 08:41:27;;;;;;;2.25;1.65;;;;;;;21.86;100.00;166289.56;5031479;28;20080;-59
2022/08/09 08:43:52;;;;;;;4.93;1.67;;;;;;;21.95;100.00;166314.03;5031452;28;20037;-59
2022/08/09 08:46:22;;;;;;;1.60;1.48;;;;;;;21.66;100.00;166236.59;5029940;28;20519;-59
2022/08/09 08:48:48;;;;;;;4.97;1.83;;;;;;;21.30;100.00;166141.47;5031760;28;20021;-59
2022/08/09 08:51:13;;;;;;;3.53;2.13;;;;;;;21.17;100.00;166108.91;5025288;28;20033;-59
2022/08/09 08:53:39;;;;;;;5.03;2.53;;;;;;;21.39;100.00;166165.94;5025459;28;20542;-59
2022/08/09 08:56:05;;;;;;;3.25;1.67;;;;;;;21.39;100.00;166167.25;5010379;28;20073;-59
2022/08/09 08:58:32;;;;;;;4.25;1.73;;;;;;;21.27;100.00;166134.69;5019266;28;20049;-60
2022/08/09 09:00:58;;;;;;;10.05;1.83;;;;;;;21.51;100.00;166198.50;5010329;28;20041;-60
2022/08/09 09:03:32;;;;;;;5.13;2.03;;;;;;;21.75;100.00;166261.03;5023208;28;20104;-59
2022/08/09 09:05:58;;;;;;;5.18;1.50;;;;;;;21.70;100.00;166247.47;5025841;28;20060;-59
2022/08/09 09:08:27;;;;;;;3.22;1.70;;;;;;;21.96;100.00;166315.38;5025789;28;20376;-59
2022/08/09 09:10:53;;;;;;;6.70;2.53;;;;;;;22.27;100.00;166396.91;5019646;28;20092;-59
2022/08/09 09:13:19;;;;;;;5.05;2.33;;;;;;;22.18;100.00;166375.16;5011958;28;20088;-59
2022/08/09 09:15:45;;;;;;;3.03;1.40;;;;;;;22.22;100.00;166383.31;5022639;28;20045;-60
2022/08/09 09:18:14;;;;;;;4.15;2.20;;;;;;;22.30;100.00;166405.06;5030365;28;20699;-59
2022/08/09 09:20:42;;;;;;;2.22;1.20;;;;;;;22.66;100.00;166500.25;5029231;28;20142;-59
2022/08/09 09:23:07;;;;;;;4.28;2.25;;;;;;;23.04;100.00;166599.44;5029385;28;20041;-60
2022/08/09 09:25:40;;;;;;;3.40;1.85;;;;;;;-146.58;100.00;69501.63;5009909;28;20038;-59
2022/08/09 09:28:06;;;;;;;3.72;1.60;;;;;;;-146.58;100.00;69501.63;5028066;28;20136;-60
2022/08/09 09:30:33;;;;;;;1.88;1.58;;;;;;;23.43;100.00;166702.81;5029614;28;20477;-59
2022/08/09 09:33:01;;;;;;;3.83;1.65;;;;;;;23.08;100.00;166610.34;5031496;28;20057;-59
2022/08/09 09:35:27;;;;;;;7.05;3.05;;;;;;;23.09;100.00;166614.38;5028650;28;20042;-59
2022/08/09 09:37:52;;;;;;;5.85;3.05;;;;;;;22.87;100.00;166554.59;5031305;28;20558;-59
2022/08/09 09:40:17;;;;;;;6.25;1.60;;;;;;;23.14;100.00;166626.63;5029538;28;20045;-60
2022/08/09 09:42:54;;;;;;;4.85;2.00;;;;;;;23.21;100.00;166644.31;5030444;28;20021;-59
2022/08/09 09:45:19;;;;;;;3.90;1.70;;;;;;;23.51;100.00;166723.19;5020081;28;20042;-60
2022/08/09 09:47:45;;;;;;;6.18;1.90;;;;;;;23.39;100.00;166693.28;5018595;28;20014;-59
2022/08/09 09:50:11;;;;;;;5.47;1.67;;;;;;;23.67;100.00;166766.69;5028982;28;20060;-59
2022/08/09 09:52:51;;;;;;;6.38;2.08;;;;;;;24.15;100.00;166891.88;5022934;28;20038;-60
2022/08/09 09:55:16;;;;;;;3.47;2.35;;;;;;;24.59;100.00;167008.84;5029098;28;20049;-59
2022/08/09 09:57:56;;;;;;;5.93;1.90;;;;;;;25.21;100.00;167172.09;5023634;28;20034;-59
2022/08/09 10:00:23;;;;;;;7.32;1.60;;;;;;;24.96;100.00;167106.84;5019315;28;20408;-59
2022/08/09 10:02:48;;;;;;;2.22;1.55;;;;;;;24.57;100.00;167002.03;5014888;28;20358;-59
2022/08/09 10:05:13;;;;;;;5.20;1.52;;;;;;;23.88;100.00;166821.06;5024092;28;20041;-59
2022/08/09 10:07:39;;;;;;;7.57;2.03;;;;;;;24.10;100.00;166879.63;5010850;28;20477;-59
2022/08/09 10:10:05;;;;;;;7.68;1.52;;;;;;;24.05;100.00;166867.38;5013693;28;20046;-59
2022/08/09 10:12:35;;;;;;;2.42;1.20;;;;;;;23.98;100.00;166847.00;5024390;28;20033;-59
2022/08/09 10:15:05;;;;;;;2.88;1.60;;;;;;;23.48;100.00;166716.38;5028428;28;20433;-59
2022/08/09 10:17:35;;;;;;;4.13;2.15;;;;;;;24.06;100.00;166870.09;5026839;28;20477;-59
2022/08/09 10:20:04;;;;;;;3.33;1.50;;;;;;;24.48;100.00;166978.88;5028633;28;20501;-59
2022/08/09 10:22:34;;;;;;;4.03;2.00;;;;;;;23.91;100.00;166829.25;5028043;28;20079;-59
2022/08/09 10:25:02;;;;;;;3.38;1.33;;;;;;;23.77;100.00;166793.91;5028669;28;20521;-58
2022/08/09 10:27:29;;;;;;;5.25;1.38;;;;;;;23.97;100.00;166844.28;5028575;28;20076;-59
2022/08/09 10:29:55;;;;;;;2.05;1.85;;;;;;;24.03;100.00;166861.91;5015038;28;20038;-59
2022/08/09 10:32:21;;;;;;;3.50;1.90;;;;;;;24.04;100.00;166864.66;5021717;28;20036;-59
2022/08/09 10:34:47;;;;;;;3.63;1.65;;;;;;;23.95;100.00;166840.16;5018844;28;20033;-59
2022/08/09 10:37:12;;;;;;;3.28;1.88;;;;;;;24.04;100.00;166864.66;5021336;28;20503;-59
2022/08/09 10:39:41;;;;;;;7.78;1.40;;;;;;;24.42;100.00;166962.56;5017145;28;20037;-59
2022/08/09 10:42:07;;;;;;;4.90;2.30;;;;;;;24.42;100.00;166962.56;5018982;28;20028;-59
2022/08/09 10:44:33;;;;;;;3.53;1.55;;;;;;;24.50;100.00;166985.69;5018585;28;20601;-59
2022/08/09 10:47:17;;;;;;;4.15;2.08;;;;;;;24.16;100.00;166894.59;5019466;28;20396;-59
2022/08/09 10:49:42;;;;;;;2.55;1.50;;;;;;;23.87;100.00;166818.34;5015255;28;20034;-59
2022/08/09 10:52:29;;;;;;;4.00;1.98;;;;;;;23.85;100.00;166814.28;5021092;28;20021;-59
2022/08/09 10:54:54;;;;;;;3.58;1.85;;;;;;;23.85;100.00;166812.94;5021429;28;20045;-59
2022/08/09 10:57:22;;;;;;;2.47;1.25;;;;;;;-146.58;100.00;69501.63;5022461;28;20942;-59
2022/08/09 10:59:47;;;;;;;10.73;2.58;;;;;;;-146.58;100.00;69501.63;5017964;28;20061;-58
2022/08/09 11:02:17;;;;;;;2.45;1.33;;;;;;;-146.58;100.00;69501.63;5023398;28;20473;-59
2022/08/09 11:04:43;;;;;;;3.65;1.13;;;;;;;-146.58;100.00;69501.63;5019217;28;20041;-59
2022/08/09 11:07:08;;;;;;;3.30;1.60;;;;;;;-146.58;100.00;69501.63;5023051;28;20376;-59